Time;durP1;ratioP1;P1;durP2;ratioP2;P2;SDS_P1;SDS_P2;PMS_P1;PMS_P2;Temp;Humidity;BMP_temperature;BMP_pressure;BME280_temperature;BME280_humidity;BME280_pressure;Samples;Min_cycle;Max_cycle;Signal;HPM_P1;HPM_P2
2021/07/05 04:15:22;;;;;;;3.78;1.30;;;;;;;15.54;92.72;98370.69;6018232;23;20044;-72
2021/07/05 04:17:48;;;;;;;6.20;2.08;;;;;;;15.53;92.73;98383.84;5035919;28;20378;-74
2021/07/05 04:20:20;;;;;;;1.98;1.40;;;;;;;15.74;91.67;98374.22;5035859;28;20025;-73
2021/07/05 04:22:46;;;;;;;3.65;1.30;;;;;;;15.64;91.78;98372.00;5035696;28;20440;-71
2021/07/05 04:25:13;;;;;;;8.32;1.67;;;;;;;15.56;91.88;98379.31;5035994;28;20021;-71
2021/07/05 04:27:40;;;;;;;5.95;1.50;;;;;;;15.59;92.56;98380.94;5035358;28;20110;-72
2021/07/05 04:30:07;;;;;;;2.58;1.63;;;;;;;15.58;92.11;98387.09;5047663;22;20116;-71
2021/07/05 04:32:32;;;;;;;2.25;1.42;;;;;;;15.79;90.41;98385.31;5015564;28;20041;-70
2021/07/05 04:34:58;;;;;;;3.33;1.60;;;;;;;15.78;90.88;98388.84;5015586;28;20075;-71
2021/07/05 04:37:23;;;;;;;7.82;2.45;;;;;;;15.65;91.60;98391.97;5015434;28;20072;-71
2021/07/05 04:39:49;;;;;;;3.60;1.42;;;;;;;15.67;91.43;98390.16;5015483;28;20032;-70
2021/07/05 04:42:14;;;;;;;5.43;1.30;;;;;;;15.66;91.98;98396.31;5015455;28;20036;-70
2021/07/05 04:44:40;;;;;;;3.30;1.52;;;;;;;15.79;91.23;98398.38;5015520;28;20021;-70
2021/07/05 04:47:07;;;;;;;2.25;1.52;;;;;;;15.65;91.04;98394.59;5014039;28;20040;-71
2021/07/05 04:49:32;;;;;;;3.13;1.50;;;;;;;15.70;91.16;98401.38;5015279;28;20120;-71
2021/07/05 04:51:58;;;;;;;5.90;1.30;;;;;;;15.70;90.78;98396.16;5015177;28;20542;-70
2021/07/05 04:54:24;;;;;;;2.53;1.52;;;;;;;15.79;90.61;98400.97;5015198;28;20490;-71
2021/07/05 04:56:49;;;;;;;8.15;1.60;;;;;;;15.87;90.05;98391.88;5015281;28;20252;-71
2021/07/05 04:59:15;;;;;;;2.53;1.50;;;;;;;15.83;90.10;98392.09;5015510;28;20108;-75
2021/07/05 05:01:40;;;;;;;2.00;1.42;;;;;;;15.86;90.26;98384.13;5015050;28;20065;-75
2021/07/05 05:04:05;;;;;;;2.85;1.40;;;;;;;16.02;89.23;98382.47;5015011;28;20022;-75
2021/07/05 05:06:31;;;;;;;3.10;1.30;;;;;;;16.11;89.19;98387.28;5014903;28;20041;-75
2021/07/05 05:08:56;;;;;;;3.90;1.60;;;;;;;16.28;88.91;98378.63;5014862;28;20028;-75
2021/07/05 05:11:22;;;;;;;4.18;1.45;;;;;;;16.46;88.35;98382.16;5014922;28;20100;-75
2021/07/05 05:13:47;;;;;;;5.03;1.42;;;;;;;16.73;88.39;98381.75;5014911;28;20029;-75
2021/07/05 05:16:13;;;;;;;3.20;1.10;;;;;;;16.90;86.73;98371.28;5014612;28;20025;-75
2021/07/05 05:18:41;;;;;;;3.58;1.20;;;;;;;17.01;86.03;98368.13;5014742;28;20072;-75
2021/07/05 05:21:07;;;;;;;3.53;1.20;;;;;;;17.14;86.07;98364.81;5014587;28;20052;-75
2021/07/05 05:23:32;;;;;;;7.22;1.42;;;;;;;16.96;85.71;98368.38;5013958;28;20033;-75
2021/07/05 05:25:58;;;;;;;5.90;1.95;;;;;;;16.84;86.76;98376.84;5014601;28;20129;-75
2021/07/05 05:28:23;;;;;;;3.92;1.30;;;;;;;17.02;85.93;98375.94;5014449;28;20066;-75
2021/07/05 05:30:48;;;;;;;4.60;1.63;;;;;;;16.92;84.24;98383.41;5014415;28;20120;-75
2021/07/05 05:33:14;;;;;;;2.22;1.27;;;;;;;17.20;83.33;98384.59;5015065;28;20405;-74
2021/07/05 05:35:39;;;;;;;6.65;1.58;;;;;;;17.28;83.80;98386.84;5014322;28;20026;-75
2021/07/05 05:38:04;;;;;;;2.72;1.50;;;;;;;17.07;83.08;98400.09;5014429;28;20101;-75
2021/07/05 05:40:30;;;;;;;4.93;1.60;;;;;;;17.21;83.42;98402.88;5014467;28;20091;-71
2021/07/05 05:42:56;;;;;;;8.20;1.77;;;;;;;17.37;82.92;98407.31;5014401;28;20471;-71
2021/07/05 05:45:22;;;;;;;5.97;1.70;;;;;;;17.57;82.06;98404.50;5014189;28;20029;-71
2021/07/05 05:47:48;;;;;;;6.45;1.85;;;;;;;17.63;81.34;98409.41;5014119;28;20034;-71
2021/07/05 05:50:15;;;;;;;6.50;1.73;;;;;;;17.91;80.59;98408.00;5014021;28;20042;-73
2021/07/05 05:52:41;;;;;;;1.42;1.20;;;;;;;18.26;78.33;98408.69;5014142;28;20025;-73
2021/07/05 05:55:08;;;;;;;2.15;1.33;;;;;;;18.45;76.01;98411.13;5014015;28;20051;-73
2021/07/05 05:57:36;;;;;;;4.65;1.58;;;;;;;18.54;76.96;98412.41;5014025;28;20034;-73
2021/07/05 06:00:07;;;;;;;3.63;1.40;;;;;;;18.18;77.49;98409.13;5013999;28;20057;-73
2021/07/05 06:02:32;;;;;;;3.50;1.17;;;;;;;18.06;78.50;98412.41;5013888;28;20033;-73
2021/07/05 06:04:58;;;;;;;2.88;1.20;;;;;;;18.04;79.11;98405.56;5013716;28;20482;-73
2021/07/05 06:07:23;;;;;;;4.60;1.25;;;;;;;18.06;78.74;98407.16;5012619;28;20024;-73
2021/07/05 06:09:48;;;;;;;3.08;1.15;;;;;;;17.91;78.96;98408.00;5011940;28;20467;-73
2021/07/05 06:12:14;;;;;;;6.20;1.63;;;;;;;18.18;78.47;98406.50;5011901;28;20424;-73
2021/07/05 06:14:39;;;;;;;2.17;1.42;;;;;;;18.18;79.13;98405.63;5011875;28;20450;-73
2021/07/05 06:17:05;;;;;;;3.90;1.48;;;;;;;18.07;79.55;98398.34;5011740;28;20029;-71
2021/07/05 06:19:31;;;;;;;5.57;1.20;;;;;;;17.87;78.19;98396.81;5011830;28;20029;-71
2021/07/05 06:21:56;;;;;;;5.47;1.48;;;;;;;17.68;79.29;98396.91;5012616;28;20037;-71
2021/07/05 06:24:22;;;;;;;4.97;1.73;;;;;;;17.69;79.67;98395.97;5012364;28;20382;-73
2021/07/05 06:26:47;;;;;;;4.80;1.30;;;;;;;17.70;79.63;98400.31;5013419;28;20028;-73
2021/07/05 06:29:13;;;;;;;2.38;1.58;;;;;;;17.80;79.99;98399.88;5013347;28;20056;-73
2021/07/05 06:31:39;;;;;;;4.20;1.42;;;;;;;17.86;80.21;98402.16;5013352;28;20037;-73
2021/07/05 06:34:05;;;;;;;4.50;1.50;;;;;;;17.68;80.79;98393.44;5013329;28;20029;-73
2021/07/05 06:36:31;;;;;;;5.93;1.45;;;;;;;17.79;80.68;98393.75;5013284;28;20025;-74
2021/07/05 06:38:57;;;;;;;6.65;1.92;;;;;;;17.88;80.66;98389.78;5013251;28;20018;-74
2021/07/05 06:41:25;;;;;;;2.70;1.15;;;;;;;17.99;80.21;98384.84;5013182;28;20030;-74
2021/07/05 06:43:52;;;;;;;2.83;1.13;;;;;;;17.79;81.35;98392.91;5013231;28;20546;-74
2021/07/05 06:46:18;;;;;;;4.20;1.55;;;;;;;18.13;81.17;98392.78;5012898;28;20395;-74
2021/07/05 06:48:43;;;;;;;1.48;1.30;;;;;;;18.18;78.88;98389.88;5012989;28;20459;-73
2021/07/05 06:51:09;;;;;;;2.13;0.90;;;;;;;18.39;75.65;98388.72;5013128;28;20087;-73
2021/07/05 06:53:34;;;;;;;1.30;1.10;;;;;;;18.22;75.71;98392.25;5013095;28;20030;-73
2021/07/05 06:55:59;;;;;;;2.35;0.80;;;;;;;18.16;75.34;98397.84;5013023;28;20410;-73
2021/07/05 06:58:25;;;;;;;1.95;1.00;;;;;;;18.40;76.20;98397.44;5012875;28;20025;-73
2021/07/05 07:00:50;;;;;;;3.90;1.50;;;;;;;18.52;73.67;98407.25;5012882;28;20160;-73
2021/07/05 07:03:16;;;;;;;2.00;0.90;;;;;;;18.84;73.68;98404.59;5012791;28;20231;-73
2021/07/05 07:05:41;;;;;;;2.08;1.10;;;;;;;19.06;73.24;98399.78;5012857;28;20049;-73
2021/07/05 07:08:07;;;;;;;1.67;1.10;;;;;;;19.29;73.01;98403.66;5012593;28;20017;-73
2021/07/05 07:10:32;;;;;;;1.17;0.95;;;;;;;19.79;71.32;98396.34;5012807;28;20025;-74
2021/07/05 07:12:58;;;;;;;4.03;1.95;;;;;;;20.02;71.84;98395.75;5012770;28;20032;-73
2021/07/05 07:15:34;;;;;;;5.82;1.33;;;;;;;20.11;72.07;98395.16;5012574;28;20049;-73
2021/07/05 07:18:04;;;;;;;7.15;1.30;;;;;;;19.80;73.14;98405.91;5012660;28;20030;-73
2021/07/05 07:20:30;;;;;;;24.65;13.43;;;;;;;19.95;71.77;98400.53;5012653;28;20133;-73
2021/07/05 07:22:55;;;;;;;3.92;1.88;;;;;;;20.02;74.05;98403.66;5012724;28;20045;-73
2021/07/05 07:25:21;;;;;;;5.03;1.55;;;;;;;19.84;75.10;98396.91;5012477;28;20049;-73
2021/07/05 07:27:46;;;;;;;1.92;0.98;;;;;;;19.69;73.74;98403.94;5012520;28;20398;-74
2021/07/05 07:30:13;;;;;;;2.25;1.00;;;;;;;19.51;74.81;98400.63;5012135;28;20085;-73
2021/07/05 07:32:39;;;;;;;4.82;1.30;;;;;;;19.24;75.21;98409.22;5012621;28;20033;-73
2021/07/05 07:35:06;;;;;;;5.57;1.23;;;;;;;19.04;74.86;98401.66;5012341;28;20041;-74
2021/07/05 07:37:32;;;;;;;4.00;1.10;;;;;;;18.93;76.21;98414.56;5012316;28;20087;-74
2021/07/05 07:40:02;;;;;;;7.85;1.30;;;;;;;19.14;77.64;98408.03;5012255;28;20022;-74
2021/07/05 07:42:27;;;;;;;6.50;1.23;;;;;;;19.23;76.71;98401.41;5012272;28;20025;-73
2021/07/05 07:44:53;;;;;;;2.15;1.10;;;;;;;19.33;76.44;98401.72;5011769;28;20080;-74
2021/07/05 07:47:18;;;;;;;1.70;1.02;;;;;;;19.42;76.09;98402.00;5012215;28;20076;-74
2021/07/05 07:49:43;;;;;;;1.65;1.00;;;;;;;19.48;77.07;98403.41;5012264;28;20045;-74
2021/07/05 07:52:09;;;;;;;2.42;1.08;;;;;;;19.46;74.34;98397.41;5012227;28;20103;-74
2021/07/05 07:54:34;;;;;;;3.20;1.02;;;;;;;19.69;74.19;98394.28;5012169;28;20032;-74
2021/07/05 07:57:01;;;;;;;0.90;0.90;;;;;;;19.75;75.40;98400.94;5011983;28;20021;-74
2021/07/05 07:59:26;;;;;;;2.28;0.90;;;;;;;19.84;74.25;98389.00;5012119;28;20389;-74
2021/07/05 08:01:51;;;;;;;3.25;1.00;;;;;;;19.82;70.48;98393.50;5012044;28;20030;-74
2021/07/05 08:04:16;;;;;;;3.83;1.20;;;;;;;19.67;71.71;98396.13;5012128;28;20029;-74
2021/07/05 08:06:42;;;;;;;2.80;0.88;;;;;;;19.46;72.07;98398.25;5011964;28;20029;-74
2021/07/05 08:09:08;;;;;;;1.90;1.00;;;;;;;19.84;73.02;98392.50;5012000;28;20076;-75
2021/07/05 08:11:35;;;;;;;1.98;0.80;;;;;;;19.77;71.76;98381.53;5011938;28;20041;-74
2021/07/05 08:14:03;;;;;;;1.77;1.00;;;;;;;19.73;71.62;98380.00;5012043;28;20030;-74
2021/07/05 08:16:29;;;;;;;2.63;1.00;;;;;;;20.28;71.41;98391.47;5011770;28;20049;-74
2021/07/05 08:18:54;;;;;;;1.25;0.75;;;;;;;20.51;67.47;98397.94;5011998;28;20022;-74
2021/07/05 08:21:20;;;;;;;3.85;1.27;;;;;;;21.11;67.98;98392.19;5011878;28;20037;-74
2021/07/05 08:23:46;;;;;;;2.25;0.90;;;;;;;20.83;68.02;98392.34;5010743;28;20041;-74
2021/07/05 08:26:11;;;;;;;2.83;0.98;;;;;;;20.33;68.55;98399.06;5011779;28;20021;-74
2021/07/05 08:28:37;;;;;;;1.55;0.80;;;;;;;19.82;70.90;98404.03;5011793;28;20459;-74
2021/07/05 08:31:04;;;;;;;2.67;0.93;;;;;;;19.81;70.27;98400.56;5011763;28;20565;-74
2021/07/05 08:33:31;;;;;;;0.88;0.70;;;;;;;19.53;70.61;98409.25;5011829;28;20240;-73
2021/07/05 08:35:57;;;;;;;1.10;1.00;;;;;;;19.77;70.31;98401.69;5011894;28;20029;-73
2021/07/05 08:38:22;;;;;;;3.17;1.05;;;;;;;20.11;68.57;98400.41;5011698;28;20057;-73
2021/07/05 08:40:48;;;;;;;4.65;0.95;;;;;;;20.35;69.12;98390.13;5011731;28;20115;-73
2021/07/05 08:43:14;;;;;;;0.80;0.80;;;;;;;20.66;69.71;98386.41;5011692;28;20041;-73
2021/07/05 08:45:43;;;;;;;1.40;0.70;;;;;;;20.96;68.12;98401.13;5011768;28;20446;-73
2021/07/05 08:48:09;;;;;;;1.08;0.85;;;;;;;20.49;67.78;98395.38;5011540;28;20026;-73
2021/07/05 08:50:35;;;;;;;2.58;0.98;;;;;;;20.64;69.70;98392.69;5011571;28;20045;-73
2021/07/05 08:53:00;;;;;;;1.33;1.15;;;;;;;20.46;69.66;98392.09;5011706;28;20387;-74
2021/07/05 08:55:28;;;;;;;2.67;1.00;;;;;;;20.26;69.08;98388.97;5011590;28;20045;-74
2021/07/05 08:57:54;;;;;;;2.55;1.40;;;;;;;20.28;70.45;98392.31;5012976;28;20061;-75
2021/07/05 09:00:28;;;;;;;2.58;1.70;;;;;;;20.23;71.39;98397.03;5015363;28;20064;-74
2021/07/05 09:02:55;;;;;;;2.35;1.02;;;;;;;20.41;69.49;98389.75;5015137;28;20097;-74
2021/07/05 09:05:21;;;;;;;1.15;1.05;;;;;;;20.69;67.46;98391.44;5015135;28;20121;-74
2021/07/05 09:08:09;;;;;;;2.10;1.10;;;;;;;20.87;68.48;98394.66;5015006;28;20068;-74
2021/07/05 09:10:49;;;;;;;2.80;0.95;;;;;;;21.04;68.30;98390.94;5014941;28;20025;-74
2021/07/05 09:13:20;;;;;;;2.28;0.88;;;;;;;21.07;67.17;98385.44;5014983;28;20030;-74
2021/07/05 09:15:49;;;;;;;1.23;1.00;;;;;;;21.05;67.59;98387.34;5014905;28;20105;-74
2021/07/05 09:18:36;;;;;;;1.90;0.95;;;;;;;20.77;68.00;98385.69;5014624;28;20049;-74
2021/07/05 09:21:10;;;;;;;1.02;0.90;;;;;;;20.42;70.81;98383.53;5014636;28;20033;-74
2021/07/05 09:23:36;;;;;;;3.97;1.15;;;;;;;20.19;71.84;98392.06;5014575;28;20033;-74
2021/07/05 09:26:03;;;;;;;2.85;1.20;;;;;;;19.76;73.08;98392.94;5014464;28;20029;-74
2021/07/05 09:28:37;;;;;;;2.88;0.70;;;;;;;19.83;72.67;98384.69;5014482;28;20026;-74
2021/07/05 09:31:02;;;;;;;1.25;1.00;;;;;;;19.08;74.81;98403.16;5014101;28;20575;-74
2021/07/05 09:33:29;;;;;;;1.05;0.95;;;;;;;19.26;76.40;98402.09;5014464;28;20036;-74
2021/07/05 09:35:57;;;;;;;2.00;1.00;;;;;;;19.10;77.34;98406.56;5014228;28;20113;-74
2021/07/05 09:38:32;;;;;;;5.00;0.98;;;;;;;19.07;76.09;98414.59;5010524;28;20027;-74
2021/07/05 09:40:59;;;;;;;2.20;1.20;;;;;;;18.96;74.16;98414.41;5009091;28;20026;-75
2021/07/05 09:43:28;;;;;;;1.58;1.17;;;;;;;18.91;76.07;98404.16;5015694;28;20041;-74
2021/07/05 09:45:55;;;;;;;1.45;0.50;;;;;;;18.94;71.11;98405.75;5017901;28;20033;-71
2021/07/05 09:48:25;;;;;;;1.02;0.60;;;;;;;19.03;70.88;98405.22;5013917;28;20025;-74
2021/07/05 09:51:01;;;;;;;1.35;0.60;;;;;;;18.98;70.43;98409.88;5013961;28;20116;-74
2021/07/05 09:53:33;;;;;;;1.58;0.90;;;;;;;19.17;74.11;98402.63;5014155;28;20018;-75
2021/07/05 09:56:17;;;;;;;2.72;0.60;;;;;;;19.31;72.45;98403.59;5004715;28;20030;-74
2021/07/05 09:58:43;;;;;;;1.27;0.60;;;;;;;19.49;70.64;98387.56;5005243;28;20030;-74
2021/07/05 10:01:08;;;;;;;1.15;0.80;;;;;;;19.47;71.98;98393.84;5004125;28;20033;-74
2021/07/05 10:03:38;;;;;;;1.27;0.80;;;;;;;19.30;72.38;98396.66;5005000;28;20922;-71
2021/07/05 10:06:18;;;;;;;1.63;0.55;;;;;;;18.86;73.73;98402.75;5004894;28;20036;-71
2021/07/05 10:08:46;;;;;;;2.13;0.77;;;;;;;18.40;78.48;98400.06;5004672;28;20112;-74
2021/07/05 10:11:11;;;;;;;1.17;0.80;;;;;;;18.01;82.03;98408.34;5005038;28;20453;-74
2021/07/05 10:13:37;;;;;;;0.88;0.60;;;;;;;18.43;81.68;98405.97;5005052;28;20108;-73
2021/07/05 10:16:10;;;;;;;2.30;0.80;;;;;;;18.41;80.80;98401.75;5004055;28;20036;-74
2021/07/05 10:18:36;;;;;;;1.08;0.90;;;;;;;18.17;81.22;98415.28;5004941;28;20032;-75
2021/07/05 10:21:02;;;;;;;1.02;0.60;;;;;;;17.93;82.97;98411.34;5004676;28;20025;-74
2021/07/05 10:23:27;;;;;;;1.52;0.93;;;;;;;17.61;84.65;98411.28;5004752;28;20117;-71
2021/07/05 10:25:53;;;;;;;1.55;0.98;;;;;;;17.68;86.43;98417.88;5004625;28;20026;-74
2021/07/05 10:28:20;;;;;;;0.82;0.73;;;;;;;17.63;85.99;98414.66;5004595;28;20037;-74
2021/07/05 10:30:49;;;;;;;1.00;0.90;;;;;;;17.74;86.86;98406.25;5047972;23;20911;-72
2021/07/05 10:33:14;;;;;;;1.67;0.80;;;;;;;17.25;87.60;98407.94;5039725;28;20074;-72
2021/07/05 10:35:46;;;;;;;2.50;1.00;;;;;;;17.70;85.88;98399.47;5023933;28;20581;-72
2021/07/05 10:38:24;;;;;;;1.17;0.90;;;;;;;17.84;85.75;98385.63;5024350;28;20029;-72
2021/07/05 10:40:55;;;;;;;2.15;0.60;;;;;;;17.82;85.45;98383.09;5021599;28;20029;-72
2021/07/05 10:43:41;;;;;;;1.23;0.90;;;;;;;17.74;87.01;98374.81;5016314;28;20128;-72
2021/07/05 10:46:07;;;;;;;2.33;0.82;;;;;;;17.64;88.69;98369.19;5015967;28;20061;-72
2021/07/05 10:48:41;;;;;;;2.60;0.85;;;;;;;17.95;86.57;98373.66;5015994;28;20117;-72
2021/07/05 10:51:10;;;;;;;1.17;1.08;;;;;;;18.01;85.73;98367.22;5031446;28;20405;-72
2021/07/05 10:53:35;;;;;;;1.50;0.88;;;;;;;18.21;84.66;98363.50;5016251;28;20026;-72
2021/07/05 10:56:02;;;;;;;0.98;0.90;;;;;;;18.24;83.50;98363.34;5017219;28;20029;-72
2021/07/05 10:58:31;;;;;;;1.17;0.95;;;;;;;18.59;83.93;98369.22;5017604;28;20021;-73
2021/07/05 11:01:00;;;;;;;1.10;1.00;;;;;;;18.89;83.20;98365.78;5016596;28;20029;-70
2021/07/05 11:03:38;;;;;;;2.85;0.90;;;;;;;18.99;82.17;98366.94;5017682;28;20060;-69
2021/07/05 11:06:08;;;;;;;9.68;6.47;;;;;;;18.92;83.97;98355.13;5017671;28;20033;-70
2021/07/05 11:08:53;;;;;;;1.90;0.90;;;;;;;18.51;83.91;98355.69;5017635;28;20022;-71
2021/07/05 11:11:26;;;;;;;2.17;1.10;;;;;;;18.86;84.07;98360.72;5018182;28;20025;-73
2021/07/05 11:14:09;;;;;;;1.98;0.90;;;;;;;18.39;82.64;98366.88;5038041;28;20040;-69
2021/07/05 11:16:52;;;;;;;1.88;0.80;;;;;;;18.04;84.27;98361.84;5018180;28;21033;-73
2021/07/05 11:19:40;;;;;;;6.45;1.25;;;;;;;18.11;84.40;98365.78;5027617;28;20026;-72
2021/07/05 11:22:15;;;;;;;2.55;1.10;;;;;;;18.28;85.24;98354.38;5017279;28;20112;-69
2021/07/05 11:24:43;;;;;;;2.85;1.20;;;;;;;18.65;85.12;98361.00;5017436;28;20108;-70
2021/07/05 11:27:28;;;;;;;3.45;1.13;;;;;;;18.95;82.12;98360.16;5017328;28;20052;-70
2021/07/05 11:29:56;;;;;;;4.63;1.17;;;;;;;19.45;81.11;98359.78;5017334;28;20029;-70
2021/07/05 11:32:40;;;;;;;2.20;1.13;;;;;;;19.33;79.81;98362.31;5017240;28;20112;-70
2021/07/05 11:35:25;;;;;;;1.48;1.30;;;;;;;19.55;79.71;98357.44;5016368;28;20025;-70
2021/07/05 11:37:56;;;;;;;1.60;1.30;;;;;;;19.57;80.36;98347.66;5013329;28;20101;-70
2021/07/05 11:40:42;;;;;;;3.58;1.38;;;;;;;19.66;78.13;98352.41;5017444;28;20026;-69
2021/07/05 11:43:09;;;;;;;1.33;1.10;;;;;;;19.70;78.08;98347.81;5017224;28;20056;-69
2021/07/05 11:45:50;;;;;;;1.48;0.90;;;;;;;20.04;77.49;98346.53;5011363;28;20455;-70
2021/07/05 11:48:40;;;;;;;1.00;0.88;;;;;;;19.35;79.66;98342.06;5017053;28;20398;-72
2021/07/05 11:51:24;;;;;;;1.00;0.90;;;;;;;19.40;80.51;98345.25;5035547;28;21338;-71
2021/07/05 11:53:57;;;;;;;2.05;1.10;;;;;;;19.37;81.35;98340.16;5011406;28;20037;-73
2021/07/05 11:56:36;;;;;;;4.10;1.10;;;;;;;19.26;80.64;98341.66;5017291;28;20025;-72
2021/07/05 11:59:07;;;;;;;1.77;1.10;;;;;;;19.14;80.72;98339.75;5016985;28;20026;-72
2021/07/05 12:01:34;;;;;;;4.05;1.30;;;;;;;19.50;80.26;98331.44;5017113;28;20038;-72
2021/07/05 12:04:00;;;;;;;1.95;1.30;;;;;;;19.31;79.66;98351.06;5017161;28;20041;-72
2021/07/05 12:06:26;;;;;;;4.00;1.50;;;;;;;19.13;81.36;98351.22;5017100;28;20060;-72
2021/07/05 12:09:07;;;;;;;2.03;1.00;;;;;;;18.93;83.57;98357.66;5016803;28;20161;-72
2021/07/05 12:11:41;;;;;;;1.40;1.10;;;;;;;18.87;83.35;98362.41;5016892;28;20026;-72
2021/07/05 12:14:09;;;;;;;2.60;1.20;;;;;;;19.44;82.78;98346.75;5016994;28;20033;-69
2021/07/05 12:16:36;;;;;;;2.20;1.42;;;;;;;19.39;81.32;98344.41;5017136;28;20029;-70
2021/07/05 12:19:03;;;;;;;3.40;1.50;;;;;;;19.53;80.41;98335.66;4973468;28;20062;-72
2021/07/05 12:21:31;;;;;;;1.30;1.20;;;;;;;19.69;79.36;98341.69;4963984;28;20062;-73
2021/07/05 12:24:10;;;;;;;3.20;1.10;;;;;;;20.26;78.05;98340.75;4964244;28;20034;-72
2021/07/05 12:26:47;;;;;;;2.13;1.20;;;;;;;20.82;76.95;98332.72;4959961;28;20054;-69
2021/07/05 12:29:18;;;;;;;2.65;0.90;;;;;;;20.77;75.40;98338.28;4963000;28;20057;-70
2021/07/05 12:32:12;;;;;;;3.40;1.17;;;;;;;20.56;76.34;98343.19;4963634;28;20038;-71
2021/07/05 12:34:46;;;;;;;3.35;1.45;;;;;;;20.71;76.15;98331.66;4962244;28;20038;-71
2021/07/05 12:37:21;;;;;;;2.80;0.88;;;;;;;20.98;75.13;98322.84;4965919;28;20114;-69
2021/07/05 12:39:57;;;;;;;5.13;0.93;;;;;;;21.11;72.79;98322.84;4967962;28;20027;-70
2021/07/05 12:42:31;;;;;;;4.43;0.90;;;;;;;20.71;74.94;98329.03;4967884;28;20437;-69
2021/07/05 12:44:57;;;;;;;2.72;1.40;;;;;;;20.59;76.79;98326.34;4963969;28;20035;-71
2021/07/05 12:47:23;;;;;;;3.58;1.10;;;;;;;20.60;76.90;98323.63;4967856;28;20037;-73
2021/07/05 12:49:53;;;;;;;1.25;1.00;;;;;;;20.88;75.47;98316.50;4963598;28;20376;-70
2021/07/05 12:52:19;;;;;;;0.80;0.80;;;;;;;21.13;74.02;98313.91;4962843;28;20093;-73
2021/07/05 12:54:45;;;;;;;1.20;1.10;;;;;;;20.82;74.03;98325.66;4965782;28;20089;-73
2021/07/05 12:57:14;;;;;;;0.70;0.70;;;;;;;21.55;72.49;98317.16;4967091;28;20044;-74
2021/07/05 12:59:42;;;;;;;1.60;0.85;;;;;;;21.56;73.37;98313.56;4967735;28;20041;-70
2021/07/05 13:02:27;;;;;;;1.65;1.20;;;;;;;21.69;71.49;98314.41;4967157;28;20034;-69
2021/07/05 13:05:13;;;;;;;1.40;0.90;;;;;;;22.52;71.13;98308.44;4961502;28;20037;-71
2021/07/05 13:07:49;;;;;;;2.13;1.10;;;;;;;22.40;67.72;98306.72;4967253;28;20030;-70
2021/07/05 13:10:14;;;;;;;2.38;0.88;;;;;;;22.27;67.84;98314.69;4966236;28;20034;-69
2021/07/05 13:12:52;;;;;;;1.67;1.10;;;;;;;22.22;67.75;98311.53;4967597;28;20041;-73
2021/07/05 13:15:18;;;;;;;1.55;1.00;;;;;;;22.66;67.04;98315.31;4964171;28;20035;-70
2021/07/05 13:17:45;;;;;;;1.88;0.90;;;;;;;22.64;66.17;98318.09;4967249;28;20039;-71
2021/07/05 13:20:14;;;;;;;2.60;1.00;;;;;;;23.11;63.59;98318.94;4980043;28;20046;-70
2021/07/05 13:22:57;;;;;;;0.75;0.70;;;;;;;23.20;65.97;98312.97;4966544;28;20037;-72
2021/07/05 13:25:24;;;;;;;1.73;1.00;;;;;;;23.48;64.50;98308.19;4963484;28;20034;-71
2021/07/05 13:27:51;;;;;;;1.80;1.50;;;;;;;24.25;59.18;98313.50;4966905;28;20120;-71
2021/07/05 13:30:21;;;;;;;4.65;0.80;;;;;;;24.53;60.61;98315.63;4963666;28;20054;-73
2021/07/05 13:32:56;;;;;;;2.00;1.35;;;;;;;24.09;59.12;98311.28;4966279;28;20069;-71
2021/07/05 13:35:27;;;;;;;2.08;0.90;;;;;;;23.98;60.49;98295.41;4963689;28;20044;-73
2021/07/05 13:37:57;;;;;;;2.88;0.80;;;;;;;23.81;61.14;98302.91;4965642;28;20391;-73
2021/07/05 13:40:24;;;;;;;1.85;0.98;;;;;;;23.42;63.22;98306.03;4963821;28;20110;-72
2021/07/05 13:42:53;;;;;;;2.17;1.08;;;;;;;23.92;61.14;98306.50;4966046;28;20412;-70
2021/07/05 13:45:27;;;;;;;1.52;0.98;;;;;;;23.60;62.45;98302.78;4963288;28;20034;-72
2021/07/05 13:47:54;;;;;;;0.77;0.75;;;;;;;23.03;66.40;98302.84;4965461;28;20041;-72
2021/07/05 13:50:21;;;;;;;1.10;0.60;;;;;;;24.03;63.08;98293.22;4966651;28;20429;-72
2021/07/05 13:52:51;;;;;;;1.48;0.80;;;;;;;23.60;61.45;98304.59;4965441;28;20480;-72
2021/07/05 13:55:55;;;;;;;1.00;0.90;;;;;;;22.32;66.09;98318.66;4963720;28;20034;-71
2021/07/05 13:58:23;;;;;;;7.30;5.07;;;;;;;21.71;69.16;98311.66;4983256;28;20170;-71
2021/07/05 14:00:54;;;;;;;2.97;1.23;;;;;;;21.57;68.13;98315.28;4967427;28;20097;-71
2021/07/05 14:03:20;;;;;;;2.65;0.93;;;;;;;21.53;70.05;98313.81;4963921;28;20288;-70
2021/07/05 14:05:51;;;;;;;1.42;0.90;;;;;;;21.41;70.03;98306.75;4961920;28;20137;-71
2021/07/05 14:08:18;;;;;;;1.23;0.93;;;;;;;21.36;69.14;98301.78;4963639;28;20158;-73
2021/07/05 14:10:46;;;;;;;3.10;1.08;;;;;;;21.49;69.74;98304.44;4963353;28;20076;-71
2021/07/05 14:13:13;;;;;;;1.48;0.90;;;;;;;21.43;70.21;98307.50;4964677;28;20023;-70
2021/07/05 14:15:40;;;;;;;1.00;0.93;;;;;;;21.13;70.41;98316.53;4964000;28;20038;-72
2021/07/05 14:18:06;;;;;;;1.30;0.80;;;;;;;20.57;73.83;98326.47;4965412;28;20030;-70
2021/07/05 14:20:31;;;;;;;3.58;1.30;;;;;;;20.19;77.92;98324.50;4965976;28;20372;-70
2021/07/05 14:22:57;;;;;;;3.67;1.40;;;;;;;20.46;75.26;98326.28;4964284;28;20022;-71
2021/07/05 14:25:22;;;;;;;2.85;1.15;;;;;;;20.88;70.99;98316.50;4961167;28;20459;-70
2021/07/05 14:27:50;;;;;;;2.75;1.85;;;;;;;20.85;69.29;98327.25;4965913;28;20031;-70
2021/07/05 14:30:17;;;;;;;1.17;0.68;;;;;;;21.45;68.50;98327.50;4964501;28;20412;-70
2021/07/05 14:32:43;;;;;;;0.60;0.60;;;;;;;21.81;66.11;98326.75;4965839;28;20035;-70
2021/07/05 14:35:09;;;;;;;0.68;0.60;;;;;;;21.60;66.79;98330.88;4975477;28;20411;-70
2021/07/05 14:37:36;;;;;;;2.15;0.52;;;;;;;21.85;65.77;98329.13;4964503;28;20035;-71
2021/07/05 14:40:03;;;;;;;1.63;0.93;;;;;;;21.67;68.11;98334.78;4964271;28;20031;-70
2021/07/05 14:42:28;;;;;;;0.75;0.75;;;;;;;21.43;67.71;98318.03;4965616;28;20085;-71
2021/07/05 14:44:55;;;;;;;1.88;1.27;;;;;;;21.43;68.75;98328.59;4964959;28;20034;-72
2021/07/05 14:47:21;;;;;;;2.28;0.60;;;;;;;21.54;68.06;98318.13;4961980;28;20026;-71
2021/07/05 14:49:47;;;;;;;0.45;0.45;;;;;;;21.76;68.02;98310.41;4963486;28;20137;-71
2021/07/05 14:52:12;;;;;;;1.52;0.88;;;;;;;21.97;66.29;98313.28;4963778;28;20463;-70
2021/07/05 14:54:38;;;;;;;0.52;0.52;;;;;;;21.80;66.50;98306.56;4962991;28;20027;-70
2021/07/05 14:57:04;;;;;;;1.33;0.60;;;;;;;22.15;66.44;98300.59;4957354;28;20034;-70
2021/07/05 14:59:30;;;;;;;3.20;0.75;;;;;;;22.44;63.66;98302.91;4961699;28;20027;-71
2021/07/05 15:01:56;;;;;;;1.25;1.00;;;;;;;22.27;64.01;98304.97;4964097;28;20041;-70
2021/07/05 15:04:22;;;;;;;0.88;0.60;;;;;;;22.44;65.22;98305.53;4960054;28;20030;-69
2021/07/05 15:06:47;;;;;;;1.00;0.77;;;;;;;22.47;64.82;98294.72;4959004;28;20027;-70
2021/07/05 15:09:13;;;;;;;2.38;0.60;;;;;;;22.33;65.54;98299.22;4959063;28;20030;-70
2021/07/05 15:11:38;;;;;;;11.10;7.90;;;;;;;22.46;64.93;98296.53;4960067;28;20301;-71
2021/07/05 15:14:04;;;;;;;7.47;6.40;;;;;;;22.16;65.23;98297.00;4960594;28;20031;-70
2021/07/05 15:16:30;;;;;;;1.10;0.73;;;;;;;21.94;64.43;98308.22;4962663;28;20096;-72
2021/07/05 15:18:55;;;;;;;0.88;0.50;;;;;;;21.68;65.78;98307.44;4963683;28;20027;-75
2021/07/05 15:21:24;;;;;;;0.75;0.65;;;;;;;21.60;65.56;98307.13;4961507;28;20035;-74
2021/07/05 15:23:53;;;;;;;1.05;0.80;;;;;;;21.46;66.14;98307.25;4965180;28;20037;-74
2021/07/05 15:26:19;;;;;;;2.08;0.50;;;;;;;21.50;65.84;98300.84;4964619;28;20039;-72
2021/07/05 15:28:45;;;;;;;0.70;0.50;;;;;;;21.57;66.19;98307.38;4963789;28;20038;-72
2021/07/05 15:31:11;;;;;;;1.08;0.90;;;;;;;21.78;65.14;98297.94;4960019;28;20410;-74
2021/07/05 15:33:36;;;;;;;3.03;0.95;;;;;;;22.06;63.90;98298.59;4964322;28;20118;-75
2021/07/05 15:36:03;;;;;;;0.98;0.70;;;;;;;22.08;64.28;98304.59;4962572;28;20030;-75
2021/07/05 15:38:28;;;;;;;2.08;0.68;;;;;;;22.17;65.45;98303.94;4962140;28;20030;-74
2021/07/05 15:40:54;;;;;;;1.30;0.70;;;;;;;22.29;64.17;98310.16;4968311;28;20058;-73
2021/07/05 15:43:20;;;;;;;0.60;0.60;;;;;;;22.28;64.28;98311.91;4963418;28;20519;-73
2021/07/05 15:45:48;;;;;;;2.85;1.88;;;;;;;22.03;62.13;98312.00;4962130;28;20022;-72
2021/07/05 15:48:15;;;;;;;0.70;0.70;;;;;;;21.91;61.49;98303.19;4963498;28;20030;-70
2021/07/05 15:50:41;;;;;;;0.63;0.60;;;;;;;21.99;61.36;98299.97;4962079;28;20034;-71
2021/07/05 15:53:06;;;;;;;0.60;0.60;;;;;;;22.00;61.12;98301.66;4960361;28;20039;-73
2021/07/05 15:55:32;;;;;;;0.80;0.52;;;;;;;22.07;61.80;98300.28;4963113;28;20130;-69